createdAt,value
2018-09-21T00:00:05.445Z,10.00
2018-09-21T00:02:32.939Z,11.18
2018-09-21T00:05:00.954Z,9.23
2018-09-21T00:07:28.466Z,9.00
2018-09-21T00:09:56.072Z,11.20
2018-09-21T00:12:23.651Z,10.20
2018-09-21T00:14:51.234Z,12.00
2018-09-21T00:17:18.723Z,11.22
2018-09-21T00:19:46.318Z,9.25
2018-09-21T00:22:13.856Z,10.20
2018-09-21T00:24:41.367Z,10.00
2018-09-21T00:27:08.950Z,9.63
2018-09-21T00:29:36.440Z,10.63
2018-09-21T00:32:04.050Z,9.93
2018-09-21T00:34:31.553Z,9.65
2018-09-21T00:36:59.114Z,11.33
2018-09-21T00:39:26.624Z,9.18
2018-09-21T00:41:54.199Z,10.40
2018-09-21T00:44:21.699Z,14.45
2018-09-21T00:46:49.291Z,11.30
2018-09-21T00:49:16.866Z,11.38
2018-09-21T00:51:44.498Z,10.75
2018-09-21T00:54:11.974Z,10.58
2018-09-21T00:56:39.582Z,10.03
2018-09-21T00:59:07.064Z,13.08
2018-09-21T01:01:34.592Z,10.72
2018-09-21T01:04:02.177Z,13.05
2018-09-21T01:06:29.737Z,11.43
2018-09-21T01:08:57.333Z,12.05
2018-09-21T01:11:24.823Z,11.57
2018-09-21T01:13:52.406Z,12.35
2018-09-21T01:16:19.905Z,12.70
2018-09-21T01:18:47.444Z,12.70
2018-09-21T01:21:14.935Z,12.18
2018-09-21T01:23:42.552Z,12.20
2018-09-21T01:26:10.099Z,11.95
2018-09-21T01:28:37.697Z,12.37
2018-09-21T01:31:05.390Z,11.00
2018-09-21T01:33:32.939Z,11.25
2018-09-21T01:36:00.857Z,12.63
2018-09-21T01:38:28.440Z,11.68
2018-09-21T01:40:55.944Z,11.68
2018-09-21T01:43:23.494Z,11.38
2018-09-21T01:45:50.978Z,12.47
2018-09-21T01:48:18.561Z,13.62
2018-09-21T01:50:46.047Z,10.70
2018-09-21T01:53:13.600Z,10.85
2018-09-21T01:55:41.107Z,10.90
2018-09-21T01:58:08.674Z,10.90
2018-09-21T02:00:36.132Z,10.95
2018-09-21T02:03:03.675Z,10.53
2018-09-21T02:05:31.398Z,10.50
2018-09-21T02:07:58.883Z,12.00
2018-09-21T02:10:26.472Z,11.60
2018-09-21T02:12:54.061Z,10.53
2018-09-21T02:15:21.526Z,10.68
2018-09-21T02:17:49.081Z,12.28
2018-09-21T02:20:16.578Z,10.80
2018-09-21T02:22:44.070Z,10.53
2018-09-21T02:25:11.605Z,10.88
2018-09-21T02:27:39.178Z,10.13
2018-09-21T02:30:06.807Z,10.43
2018-09-21T02:32:34.880Z,9.63
2018-09-21T02:35:02.466Z,12.65
2018-09-21T02:37:29.962Z,10.30
2018-09-21T02:39:57.543Z,10.72
2018-09-21T02:42:26.050Z,11.73
2018-09-21T02:44:53.623Z,16.05
2018-09-21T02:47:21.109Z,10.88
2018-09-21T02:49:48.595Z,10.95
2018-09-21T02:52:16.136Z,10.68
2018-09-21T02:54:43.622Z,10.35
2018-09-21T02:57:11.238Z,11.15
2018-09-21T02:59:38.727Z,11.68
2018-09-21T03:02:06.272Z,10.00
2018-09-21T03:04:38.345Z,11.10
2018-09-21T03:07:05.929Z,10.93
2018-09-21T03:09:33.415Z,11.48
2018-09-21T03:12:00.989Z,10.50
2018-09-21T03:14:28.494Z,11.30
2018-09-21T03:16:56.060Z,11.60
2018-09-21T03:19:23.555Z,11.43
2018-09-21T03:21:51.104Z,13.80
2018-09-21T03:24:18.666Z,12.43
2018-09-21T03:26:46.161Z,11.50
2018-09-21T03:29:13.721Z,12.05
2018-09-21T03:31:41.246Z,11.48
2018-09-21T03:34:08.825Z,11.18
2018-09-21T03:36:36.296Z,12.90
2018-09-21T03:39:06.319Z,12.40
2018-09-21T03:41:33.803Z,12.53
2018-09-21T03:44:01.396Z,12.47
2018-09-21T03:46:28.894Z,11.97
2018-09-21T03:48:56.474Z,11.90
2018-09-21T03:51:23.969Z,12.13
2018-09-21T03:53:51.547Z,16.23
2018-09-21T03:56:19.014Z,14.28
2018-09-21T03:58:46.756Z,12.80
2018-09-21T04:01:14.367Z,12.50
2018-09-21T04:03:41.897Z,12.60
2018-09-21T04:06:09.456Z,12.18
2018-09-21T04:08:37.014Z,13.43
2018-09-21T04:11:04.686Z,12.90
2018-09-21T04:13:32.245Z,12.63
2018-09-21T04:15:59.794Z,12.35
2018-09-21T04:18:27.278Z,11.97
2018-09-21T04:20:54.861Z,12.53
2018-09-21T04:23:22.408Z,11.35
2018-09-21T04:25:49.982Z,12.85
2018-09-21T04:28:17.542Z,12.23
2018-09-21T04:30:45.125Z,11.75
2018-09-21T04:33:12.606Z,12.58
2018-09-21T04:35:40.169Z,11.65
2018-09-21T04:38:07.654Z,11.20
2018-09-21T04:40:35.267Z,11.95
2018-09-21T04:43:02.866Z,11.97
2018-09-21T04:45:30.406Z,11.93
2018-09-21T04:47:57.954Z,11.93
2018-09-21T04:50:25.518Z,11.73
2018-09-21T04:52:53.035Z,11.63
2018-09-21T04:55:20.530Z,11.00
2018-09-21T04:57:48.140Z,11.55
2018-09-21T05:00:15.631Z,11.03
2018-09-21T05:02:43.219Z,11.57
2018-09-21T05:05:10.747Z,11.68
2018-09-21T05:07:38.325Z,10.85
2018-09-21T05:10:05.842Z,10.85
2018-09-21T05:12:33.444Z,9.65
2018-09-21T05:15:00.938Z,10.93
2018-09-21T05:17:28.542Z,10.68
2018-09-21T05:19:56.054Z,10.70
2018-09-21T05:22:23.601Z,10.25
2018-09-21T05:24:51.100Z,12.28
2018-09-21T05:27:18.654Z,10.58
2018-09-21T05:29:46.147Z,11.10
2018-09-21T05:32:13.741Z,11.48
2018-09-21T05:34:41.408Z,10.48
2018-09-21T05:37:08.853Z,10.32
2018-09-21T05:39:36.471Z,10.30
2018-09-21T05:42:04.055Z,9.63
2018-09-21T05:44:31.657Z,11.00
2018-09-21T05:46:59.266Z,10.60
2018-09-21T05:49:26.776Z,10.72
2018-09-21T05:51:54.329Z,11.28
2018-09-21T05:54:21.855Z,10.53
2018-09-21T05:56:49.362Z,10.50
2018-09-21T05:59:17.522Z,9.40
2018-09-21T06:01:45.152Z,10.45
2018-09-21T06:04:12.746Z,11.80
2018-09-21T06:06:40.491Z,9.93
2018-09-21T06:09:10.258Z,10.53
2018-09-21T06:11:37.905Z,9.55
2018-09-21T06:14:05.663Z,9.68
2018-09-21T06:16:33.205Z,10.65
2018-09-21T06:19:00.865Z,10.23
2018-09-21T06:21:28.433Z,12.10
2018-09-21T06:23:55.995Z,10.70
2018-09-21T06:26:23.511Z,8.85
2018-09-21T06:28:51.133Z,10.03
2018-09-21T06:31:19.190Z,10.80
2018-09-21T06:33:46.837Z,12.68
2018-09-21T06:36:14.402Z,9.75
2018-09-21T06:38:41.930Z,9.80
2018-09-21T06:41:09.566Z,9.15
2018-09-21T06:43:37.035Z,9.68
2018-09-21T06:46:04.688Z,8.98
2018-09-21T06:48:32.232Z,10.28
2018-09-21T06:50:59.786Z,8.98
2018-09-21T06:53:27.290Z,9.80
2018-09-21T06:55:54.907Z,9.05
2018-09-21T06:58:22.431Z,10.72
2018-09-21T07:00:49.916Z,9.48
2018-09-21T07:03:17.498Z,12.10
2018-09-21T07:05:45.173Z,8.48
2018-09-21T07:08:12.802Z,8.70
2018-09-21T07:10:40.423Z,10.60
2018-09-21T07:13:08.000Z,10.90
2018-09-21T07:15:35.514Z,10.13
2018-09-21T07:18:03.097Z,10.35
2018-09-21T07:20:30.586Z,9.20
2018-09-21T07:22:58.183Z,8.08
2018-09-21T07:25:25.725Z,8.25
2018-09-21T07:27:53.305Z,8.28
2018-09-21T07:30:20.866Z,9.25
2018-09-21T07:32:48.527Z,8.40
2018-09-21T07:35:16.075Z,8.70
2018-09-21T07:37:43.690Z,10.80
2018-09-21T07:40:11.317Z,7.90
2018-09-21T07:42:38.914Z,8.60
2018-09-21T07:45:06.441Z,8.23
2018-09-21T07:47:34.015Z,8.03
2018-09-21T07:50:01.572Z,11.20
2018-09-21T07:52:29.234Z,9.37
2018-09-21T07:54:56.790Z,7.50
2018-09-21T07:57:24.445Z,6.97
2018-09-21T07:59:51.962Z,8.07
2018-09-21T08:02:19.461Z,7.47
2018-09-21T08:04:47.121Z,7.40
2018-09-21T08:07:14.761Z,6.73
2018-09-21T08:09:42.378Z,6.97
2018-09-21T08:12:09.969Z,8.30
2018-09-21T08:14:37.537Z,10.30
2018-09-21T08:17:05.308Z,6.47
2018-09-21T08:19:32.944Z,8.20
2018-09-21T08:22:00.462Z,7.33
2018-09-21T08:24:28.037Z,8.10
2018-09-21T08:26:55.635Z,7.40
2018-09-21T08:29:23.246Z,7.40
2018-09-21T08:31:50.757Z,9.17
2018-09-21T08:34:18.460Z,9.03
2018-09-21T08:36:45.982Z,7.40
2018-09-21T08:39:13.564Z,7.00
2018-09-21T08:41:41.419Z,7.93
2018-09-21T08:44:09.542Z,7.37
2018-09-21T08:46:37.117Z,8.30
2018-09-21T08:49:04.858Z,7.37
2018-09-21T08:51:32.579Z,7.47
2018-09-21T08:54:00.075Z,7.20
2018-09-21T08:56:27.899Z,7.53
2018-09-21T08:58:55.417Z,9.10
2018-09-21T09:01:23.073Z,10.67
2018-09-21T09:03:50.623Z,8.03
2018-09-21T09:06:18.282Z,6.60
2018-09-21T09:08:45.843Z,8.77
2018-09-21T09:11:13.478Z,8.57
2018-09-21T09:13:41.042Z,8.30
2018-09-21T09:16:08.695Z,6.60
2018-09-21T09:18:36.173Z,7.50
2018-09-21T09:21:03.791Z,7.20
2018-09-21T09:23:31.347Z,6.77
2018-09-21T09:25:58.988Z,8.47
2018-09-21T09:28:26.529Z,8.33
2018-09-21T09:30:54.177Z,8.63
2018-09-21T09:33:21.717Z,7.80
2018-09-21T09:35:49.307Z,9.53
2018-09-21T09:38:16.848Z,9.10
2018-09-21T09:40:44.469Z,7.07
2018-09-21T09:43:12.020Z,9.53
2018-09-21T09:45:39.611Z,7.80
2018-09-21T09:48:07.174Z,8.43
2018-09-21T09:50:34.779Z,7.10
2018-09-21T09:53:02.329Z,7.93
2018-09-21T09:55:29.853Z,7.03
2018-09-21T09:57:57.446Z,8.93
2018-09-21T10:00:30.567Z,8.50
2018-09-21T10:02:58.779Z,6.27
2018-09-21T10:05:26.366Z,7.40
2018-09-21T10:07:54.075Z,17.00
2018-09-21T10:10:21.745Z,7.63
2018-09-21T10:12:49.314Z,8.67
2018-09-21T10:15:17.265Z,6.80
2018-09-21T10:17:44.861Z,8.30
2018-09-21T10:20:12.375Z,7.53
2018-09-21T10:22:39.973Z,14.17
2018-09-21T10:25:07.482Z,7.80
2018-09-21T10:27:35.286Z,8.60
2018-09-21T10:30:02.752Z,7.80
2018-09-21T10:32:30.335Z,7.63
2018-09-21T10:34:57.793Z,7.50
2018-09-21T10:37:25.429Z,8.43
2018-09-21T10:39:53.095Z,7.53
2018-09-21T10:42:20.768Z,10.60
2018-09-21T10:44:48.871Z,7.43
2018-09-21T10:47:16.479Z,7.63
2018-09-21T10:49:43.988Z,7.60
2018-09-21T10:52:11.610Z,9.40
2018-09-21T10:54:39.134Z,8.53
2018-09-21T10:57:06.771Z,8.80
2018-09-21T10:59:34.291Z,9.40
2018-09-21T11:02:02.011Z,8.13
2018-09-21T11:04:29.691Z,8.10
2018-09-21T11:06:57.381Z,8.70
2018-09-21T11:09:24.916Z,10.03
2018-09-21T11:11:52.518Z,7.33
2018-09-21T11:14:20.029Z,10.93
2018-09-21T11:16:47.535Z,7.10
2018-09-21T11:19:15.171Z,7.50
2018-09-21T11:21:42.727Z,8.23
2018-09-21T11:24:10.417Z,6.93
2018-09-21T11:26:37.988Z,7.03
2018-09-21T11:29:05.690Z,9.37
2018-09-21T11:31:33.225Z,6.70
2018-09-21T11:34:00.941Z,8.10
2018-09-21T11:36:28.524Z,7.73
2018-09-21T11:38:56.130Z,7.43
2018-09-21T11:41:23.788Z,7.03
2018-09-21T11:43:51.496Z,8.17
2018-09-21T11:46:19.158Z,10.60
2018-09-21T11:48:46.883Z,11.07
2018-09-21T11:51:15.382Z,6.33
2018-09-21T11:53:43.087Z,11.83
2018-09-21T11:56:10.642Z,8.07
2018-09-21T11:58:38.302Z,7.37
2018-09-21T12:01:06.776Z,7.10
2018-09-21T12:03:34.448Z,8.37
2018-09-21T12:06:04.865Z,9.77
2018-09-21T12:08:32.630Z,9.07
2018-09-21T12:11:00.228Z,8.30
2018-09-21T12:13:27.885Z,7.07
2018-09-21T12:15:56.149Z,7.83
2018-09-21T12:18:23.781Z,9.20
2018-09-21T12:20:51.451Z,6.90
2018-09-21T12:23:19.071Z,7.27
2018-09-21T12:25:47.677Z,7.80
2018-09-21T12:28:15.305Z,9.83
2018-09-21T12:30:42.988Z,9.70
2018-09-21T12:33:10.618Z,7.00
2018-09-21T12:35:38.275Z,7.37
2018-09-21T12:38:06.297Z,7.43
2018-09-21T12:40:34.015Z,7.53
2018-09-21T12:43:01.595Z,7.10
2018-09-21T12:45:29.206Z,6.60
2018-09-21T12:47:56.889Z,7.77
2018-09-21T12:50:24.705Z,9.77
2018-09-21T12:52:52.297Z,7.63
2018-09-21T12:55:19.969Z,8.50
2018-09-21T12:57:47.696Z,7.60
2018-09-21T13:00:15.313Z,7.30
2018-09-21T13:02:43.195Z,7.50
2018-09-21T13:05:10.734Z,7.27
2018-09-21T13:07:38.422Z,8.27
2018-09-21T13:10:06.794Z,8.30
2018-09-21T13:12:34.461Z,8.20
2018-09-21T13:15:02.674Z,8.57
2018-09-21T13:17:30.309Z,7.33
2018-09-21T13:19:58.003Z,7.93
2018-09-21T13:22:25.656Z,7.60
2018-09-21T13:24:53.301Z,7.53
2018-09-21T13:27:20.967Z,6.87
2018-09-21T13:29:48.594Z,6.77
2018-09-21T13:32:16.439Z,8.90
2018-09-21T13:34:43.989Z,7.23
2018-09-21T13:37:11.779Z,11.03
2018-09-21T13:39:40.323Z,7.60
2018-09-21T13:42:07.982Z,8.20
2018-09-21T13:44:35.644Z,7.03
2018-09-21T13:47:03.253Z,10.73
2018-09-21T13:49:30.916Z,9.80
2018-09-21T13:51:58.501Z,7.10
2018-09-21T13:54:26.045Z,11.10
2018-09-21T13:56:53.761Z,8.03
2018-09-21T13:59:21.535Z,7.27
2018-09-21T14:01:49.282Z,8.10
2018-09-21T14:04:16.921Z,7.63
2018-09-21T14:06:44.669Z,6.80
2018-09-21T14:09:12.284Z,8.23
2018-09-21T14:11:39.956Z,7.90
2018-09-21T14:14:07.616Z,7.70
2018-09-21T14:16:35.379Z,7.20
2018-09-21T14:19:03.097Z,9.93
2018-09-21T14:21:30.941Z,8.70
2018-09-21T14:23:58.619Z,6.93
2018-09-21T14:26:26.304Z,6.27
2018-09-21T14:28:53.996Z,6.60
2018-09-21T14:31:21.721Z,8.53
2018-09-21T14:33:49.617Z,6.70
2018-09-21T14:36:17.392Z,6.03
2018-09-21T14:38:45.083Z,5.93
2018-09-21T14:41:12.854Z,13.43
2018-09-21T14:43:40.645Z,5.20
2018-09-21T14:46:08.872Z,9.70
2018-09-21T14:48:36.688Z,6.63
2018-09-21T14:51:04.522Z,5.10
2018-09-21T14:53:32.261Z,5.90
2018-09-21T14:55:59.972Z,8.20
2018-09-21T14:58:27.740Z,7.13
2018-09-21T15:00:55.446Z,5.53
2018-09-21T15:03:23.222Z,6.93
2018-09-21T15:05:51.065Z,6.10
2018-09-21T15:08:18.812Z,5.93
2018-09-21T15:10:46.562Z,4.97
2018-09-21T15:13:14.361Z,4.83
2018-09-21T15:15:42.025Z,5.57
2018-09-21T15:18:09.690Z,9.57
2018-09-21T15:20:37.434Z,9.10
2018-09-21T15:23:05.089Z,5.80
2018-09-21T15:25:32.778Z,6.57
2018-09-21T15:28:00.499Z,12.10
2018-09-21T15:30:28.186Z,17.17
2018-09-21T15:32:55.812Z,8.10
2018-09-21T15:35:24.494Z,7.90
2018-09-21T15:37:52.163Z,12.78
2018-09-21T15:40:19.971Z,13.85
2018-09-21T15:42:47.537Z,7.75
2018-09-21T15:45:15.174Z,8.58
2018-09-21T15:47:42.742Z,7.97
2018-09-21T15:50:10.884Z,3.77
2018-09-21T15:52:38.514Z,4.35
2018-09-21T15:55:06.131Z,2.40
2018-09-21T15:57:33.774Z,3.52
2018-09-21T16:00:01.508Z,3.45
2018-09-21T16:02:29.150Z,2.50
2018-09-21T16:04:57.080Z,2.27
2018-09-21T16:07:24.714Z,3.12
2018-09-21T16:09:52.454Z,6.40
2018-09-21T16:12:20.615Z,3.55
2018-09-21T16:14:48.298Z,3.10
2018-09-21T16:17:16.095Z,2.02
2018-09-21T16:19:43.796Z,2.35
2018-09-21T16:22:11.531Z,2.92
2018-09-21T16:24:39.240Z,2.72
2018-09-21T16:27:07.032Z,2.92
2018-09-21T16:29:34.645Z,2.85
2018-09-21T16:32:02.355Z,2.65
2018-09-21T16:34:30.143Z,3.92
2018-09-21T16:36:57.905Z,3.05
2018-09-21T16:39:25.654Z,2.02
2018-09-21T16:41:53.361Z,2.98
2018-09-21T16:44:21.086Z,5.33
2018-09-21T16:46:48.823Z,2.90
2018-09-21T16:49:16.572Z,3.58
2018-09-21T16:51:44.359Z,1.90
2018-09-21T16:54:11.999Z,2.00
2018-09-21T16:56:39.765Z,3.50
2018-09-21T16:59:07.511Z,2.52
2018-09-21T17:01:36.285Z,2.70
2018-09-21T17:04:03.911Z,2.98
2018-09-21T17:06:31.563Z,2.30
2018-09-21T17:08:59.362Z,4.58
2018-09-21T17:11:27.106Z,2.52
2018-09-21T17:13:54.712Z,2.50
2018-09-21T17:16:22.330Z,3.98
2018-09-21T17:18:50.060Z,3.72
2018-09-21T17:21:17.801Z,3.10
2018-09-21T17:23:45.573Z,3.62
2018-09-21T17:26:13.155Z,5.60
2018-09-21T17:28:40.845Z,3.95
2018-09-21T17:31:08.487Z,3.40
2018-09-21T17:33:36.132Z,4.08
2018-09-21T17:36:03.713Z,2.98
2018-09-21T17:38:31.423Z,2.72
2018-09-21T17:40:59.074Z,5.30
2018-09-21T17:43:26.772Z,4.30
2018-09-21T17:45:54.429Z,7.78
2018-09-21T17:48:22.048Z,4.15
2018-09-21T17:50:49.823Z,8.20
2018-09-21T17:53:17.413Z,6.85
2018-09-21T17:55:45.204Z,3.22
2018-09-21T17:58:12.859Z,4.05
2018-09-21T18:00:40.610Z,3.22
2018-09-21T18:03:08.286Z,5.60
2018-09-21T18:05:36.082Z,4.28
2018-09-21T18:11:00.976Z,3.77
2018-09-21T18:13:31.634Z,6.87
2018-09-21T18:16:07.923Z,6.70
2018-09-21T18:18:44.635Z,4.75
2018-09-21T18:21:18.091Z,5.65
2018-09-21T18:23:47.907Z,3.02
2018-09-21T18:26:19.192Z,7.92
2018-09-21T18:28:51.711Z,6.05
2018-09-21T18:31:25.686Z,7.28
2018-09-21T18:33:53.248Z,4.17
2018-09-21T18:36:20.969Z,3.08
2018-09-21T18:38:48.571Z,8.63
2018-09-21T18:41:16.118Z,6.20
2018-09-21T18:43:43.820Z,4.00
2018-09-21T18:46:11.437Z,4.70
2018-09-21T18:48:39.147Z,4.90
2018-09-21T18:51:06.786Z,4.20
2018-09-21T18:53:34.473Z,4.92
2018-09-21T18:56:02.390Z,3.70
2018-09-21T18:58:30.388Z,6.78
2018-09-21T19:00:58.027Z,3.58
2018-09-21T19:03:25.680Z,4.80
2018-09-21T19:05:53.484Z,4.37
2018-09-21T19:08:21.219Z,3.55
2018-09-21T19:10:48.837Z,5.83
2018-09-21T19:13:16.698Z,4.25
2018-09-21T19:15:44.801Z,7.75
2018-09-21T19:18:12.835Z,4.45
2018-09-21T19:20:40.780Z,6.65
2018-09-21T19:23:08.917Z,4.67
2018-09-21T19:25:36.807Z,5.70
2018-09-21T19:28:04.839Z,4.60
2018-09-21T19:30:32.865Z,4.85
2018-09-21T19:33:01.416Z,3.08
2018-09-21T19:35:29.159Z,2.70
2018-09-21T19:37:57.139Z,3.25
2018-09-21T19:40:25.021Z,4.67
2018-09-21T19:42:52.885Z,3.22
2018-09-21T19:45:20.633Z,4.92
2018-09-21T19:47:48.094Z,5.87
2018-09-21T19:50:15.768Z,4.72
2018-09-21T19:52:43.366Z,6.58
2018-09-21T19:55:11.023Z,4.00
2018-09-21T19:57:38.612Z,5.15
2018-09-21T20:00:06.561Z,3.90
2018-09-21T20:02:34.142Z,6.35
2018-09-21T20:05:02.256Z,5.58
2018-09-21T20:07:29.873Z,9.28
2018-09-21T20:09:57.550Z,5.25
2018-09-21T20:12:25.153Z,5.47
2018-09-21T20:14:52.710Z,3.72
2018-09-21T20:17:20.367Z,4.47
2018-09-21T20:19:47.946Z,2.90
2018-09-21T20:22:15.670Z,4.58
2018-09-21T20:24:43.214Z,5.62
2018-09-21T20:27:10.896Z,4.45
2018-09-21T20:29:38.637Z,5.70
2018-09-21T20:32:12.096Z,4.70
2018-09-21T20:34:39.751Z,8.80
2018-09-21T20:37:07.495Z,4.33
2018-09-21T20:39:35.031Z,3.22
2018-09-21T20:42:02.743Z,3.05
2018-09-21T20:44:30.326Z,3.87
2018-09-21T20:46:57.934Z,6.67
2018-09-21T20:49:25.516Z,5.70
2018-09-21T20:51:53.243Z,5.37
2018-09-21T20:54:20.746Z,6.65
2018-09-21T20:56:48.375Z,3.92
2018-09-21T20:59:15.954Z,5.17
2018-09-21T21:01:43.498Z,3.02
2018-09-21T21:04:11.142Z,4.40
2018-09-21T21:06:38.759Z,6.80
2018-09-21T21:09:07.610Z,5.50
2018-09-21T21:11:35.154Z,3.47
2018-09-21T21:14:02.746Z,5.03
2018-09-21T21:16:30.338Z,3.12
2018-09-21T21:18:57.979Z,7.08
2018-09-21T21:21:25.562Z,4.10
2018-09-21T21:23:53.194Z,4.95
2018-09-21T21:26:20.837Z,4.03
2018-09-21T21:28:48.679Z,4.87
2018-09-21T21:31:16.395Z,7.20
2018-09-21T21:33:43.984Z,4.35
2018-09-21T21:36:11.641Z,5.50
2018-09-21T21:38:39.342Z,4.20
2018-09-21T21:41:07.030Z,5.20
2018-09-21T21:43:34.625Z,3.50
2018-09-21T21:46:02.295Z,5.05
2018-09-21T21:48:29.821Z,3.75
2018-09-21T21:50:57.440Z,5.65
2018-09-21T21:53:24.999Z,10.08
2018-09-21T21:55:52.538Z,6.10
2018-09-21T21:58:20.141Z,3.75
2018-09-21T22:00:53.469Z,3.42
2018-09-21T22:03:21.125Z,5.45
2018-09-21T22:05:48.842Z,4.00
2018-09-21T22:08:16.614Z,3.00
2018-09-21T22:10:44.247Z,3.67
2018-09-21T22:13:17.350Z,3.27
2018-09-21T22:15:44.996Z,3.65
2018-09-21T22:18:12.627Z,6.17
2018-09-21T22:20:40.203Z,6.37
2018-09-21T22:23:07.806Z,4.37
2018-09-21T22:25:35.345Z,3.25
2018-09-21T22:28:02.938Z,3.45
2018-09-21T22:30:30.450Z,5.10
2018-09-21T22:32:58.037Z,4.05
2018-09-21T22:35:25.605Z,4.17
2018-09-21T22:37:53.257Z,3.40
2018-09-21T22:40:20.789Z,2.75
2018-09-21T22:42:48.362Z,3.08
2018-09-21T22:45:15.904Z,5.33
2018-09-21T22:47:43.541Z,3.62
2018-09-21T22:50:11.113Z,5.53
2018-09-21T22:52:38.652Z,6.72
2018-09-21T22:55:06.337Z,6.28
2018-09-21T22:57:33.855Z,7.30
2018-09-21T23:00:01.552Z,5.55
2018-09-21T23:02:29.092Z,6.22
2018-09-21T23:04:56.771Z,4.15
2018-09-21T23:07:24.282Z,5.90
2018-09-21T23:09:51.908Z,3.35
2018-09-21T23:12:19.464Z,3.33
2018-09-21T23:14:46.983Z,5.55
2018-09-21T23:17:14.576Z,5.65
2018-09-21T23:19:42.201Z,4.45
2018-09-21T23:22:09.691Z,5.78
2018-09-21T23:24:37.307Z,4.87
2018-09-21T23:27:04.909Z,6.37
2018-09-21T23:29:32.441Z,5.42
2018-09-21T23:32:00.058Z,4.22
2018-09-21T23:34:27.630Z,5.85
2018-09-21T23:36:55.227Z,5.17
2018-09-21T23:39:22.743Z,6.08
2018-09-21T23:41:50.369Z,10.03
2018-09-21T23:44:17.917Z,3.72
2018-09-21T23:46:45.499Z,3.72
2018-09-21T23:49:13.010Z,4.92
2018-09-21T23:51:40.551Z,6.85
2018-09-21T23:54:08.071Z,6.00
2018-09-21T23:56:35.669Z,4.25
2018-09-21T23:59:03.221Z,5.33
